Huvudsida
METAR-TAF:

METAR-TAF

Flygplatser :

Örebro flygplats

Örebro, Sverige

latitud: 59-14N, longitud: 015-03E, höjd: 57 m

Aktuellt väderrapport

Denna rapport gjordes för 42 minuter sedan, klockan 09:20 UTC
Vind 14 kt från väst/sydväst i byarna ända upp till 24 kt
Temperatur 6°C
Fuktighet 87%
Tryck 1016 hPa
Sikt: 5000 m
Spridda moln på en höjd av 600 ft
Brutna moln på en höjd av 900 ft
fuktdis

METAR: ESOE 200920Z 25014G24KT 5000 BR SCT006 BKN009 06/04 Q1016

Tid: 11:02 (10:02 UTC)

Väderprognos

Denna rapport gjordes för 1 timme och 32 minuter sedan, klockan 08:30 UTC
Prognos gäller från 20 kl. 09 UTC till 20 kl. 18 UTC
Vind 12 kt från väst/sydväst
Sikt 10 km eller mer
Brutna moln på en höjd av 900 ft
Sannolikhet 40%
från 20 kl. 09 UTC till 20 kl. 12 UTC
Sikt: 2000 m
Brutna moln på en höjd av 400 ft
fuktdis
Blir
från 20 kl. 10 UTC till 20 kl. 12 UTC
Spridda moln på en höjd av 1500 ft

TAF: ESOE 200830Z 2009/2018 24012KT 9999 BKN009 PROB40 2009/2012 2000 BR BKN004 BECMG 2010/2012 SCT015

Aktuella väderrapporter och prognoser från 4000 flygplatser (METAR- och TAF-rapporter).

De tillgängliga stationerna syns som gula och röda prickar på kartan.

För musen över prickarna för att se namnen på stationerna.

Klicka sedan för att få väderrapporter och prognoser.

För att ändra kartan: Klicka på de gröna knapparna med ett svart kors på för att zooma in; den gröna knappen med ett streck på för att zooma ut; eller på de gröna pilarna för angränsande kartor.


METAR-TAF: